createdAt,value
2017-03-18T00:00:32.587Z,0
2017-03-18T00:01:13.115Z,0
2017-03-18T00:01:53.622Z,0
2017-03-18T00:02:34.152Z,0
2017-03-18T00:03:14.664Z,0
2017-03-18T00:03:55.179Z,0
2017-03-18T00:04:35.713Z,0
2017-03-18T00:05:16.213Z,0
2017-03-18T00:05:56.730Z,0
2017-03-18T00:06:37.257Z,0
2017-03-18T00:07:17.753Z,0
2017-03-18T00:07:58.274Z,0
2017-03-18T00:08:38.799Z,0
2017-03-18T00:09:19.314Z,0
2017-03-18T00:09:59.833Z,0
2017-03-18T00:10:40.362Z,0
2017-03-18T00:11:20.893Z,0
2017-03-18T00:12:01.415Z,0
2017-03-18T00:12:41.945Z,0
2017-03-18T00:13:22.481Z,0
2017-03-18T00:14:03.001Z,0
2017-03-18T00:14:43.522Z,0
2017-03-18T00:15:24.032Z,0
2017-03-18T00:16:04.562Z,0
2017-03-18T00:16:45.107Z,0
2017-03-18T00:17:25.634Z,0
2017-03-18T00:18:06.160Z,0
2017-03-18T00:18:46.666Z,0
2017-03-18T00:19:27.204Z,0
2017-03-18T00:20:07.719Z,0
2017-03-18T00:20:48.228Z,0
2017-03-18T00:21:28.757Z,0
2017-03-18T00:22:09.285Z,0
2017-03-18T00:22:49.794Z,0
2017-03-18T00:23:30.305Z,0
2017-03-18T00:24:10.817Z,0
2017-03-18T00:24:51.308Z,0
2017-03-18T00:25:31.856Z,0
2017-03-18T00:26:12.365Z,0
2017-03-18T00:26:52.883Z,0
2017-03-18T00:27:33.411Z,0
2017-03-18T00:28:13.924Z,0
2017-03-18T00:28:54.426Z,0
2017-03-18T00:29:34.939Z,0
2017-03-18T00:30:15.452Z,0
2017-03-18T00:30:55.973Z,0
2017-03-18T00:31:36.509Z,0
2017-03-18T00:32:17.023Z,0
2017-03-18T00:32:57.549Z,0
2017-03-18T00:33:38.086Z,0
2017-03-18T00:34:18.609Z,0
2017-03-18T00:34:59.126Z,0
2017-03-18T00:35:39.650Z,0
2017-03-18T00:36:20.163Z,0
2017-03-18T00:37:00.678Z,0
2017-03-18T00:37:41.205Z,0
2017-03-18T00:38:21.723Z,0
2017-03-18T00:39:02.262Z,0
2017-03-18T00:39:42.773Z,0
2017-03-18T00:40:23.285Z,0
2017-03-18T00:41:03.810Z,0
2017-03-18T00:41:44.322Z,0
2017-03-18T00:42:24.840Z,0
2017-03-18T00:43:05.372Z,0
2017-03-18T00:43:45.873Z,0
2017-03-18T00:44:26.394Z,0
2017-03-18T00:45:06.900Z,0
2017-03-18T00:45:47.409Z,0
2017-03-18T00:46:27.933Z,0
2017-03-18T00:47:08.445Z,0
2017-03-18T00:47:48.955Z,0
2017-03-18T00:48:29.480Z,0
2017-03-18T00:49:10.006Z,0
2017-03-18T00:49:50.528Z,0
2017-03-18T00:50:31.034Z,0
2017-03-18T00:51:11.550Z,0
2017-03-18T00:51:52.067Z,0
2017-03-18T00:52:32.585Z,0
2017-03-18T00:53:13.112Z,0
2017-03-18T00:53:53.627Z,0
2017-03-18T00:54:34.143Z,0
2017-03-18T00:55:14.656Z,0
2017-03-18T00:55:55.165Z,0
2017-03-18T00:56:36.508Z,0
2017-03-18T00:57:17.026Z,0
2017-03-18T00:57:57.537Z,0
2017-03-18T00:58:38.043Z,0
2017-03-18T00:59:18.551Z,0
2017-03-18T00:59:59.069Z,0
2017-03-18T01:00:39.576Z,0
2017-03-18T01:01:20.094Z,0
2017-03-18T01:02:00.602Z,0
2017-03-18T01:02:41.119Z,0
2017-03-18T01:03:21.608Z,0
2017-03-18T01:04:02.141Z,0
2017-03-18T01:04:42.622Z,0
2017-03-18T01:05:23.148Z,0
2017-03-18T01:06:03.676Z,0
2017-03-18T01:06:44.183Z,0
2017-03-18T01:07:24.703Z,0
2017-03-18T01:08:05.232Z,0
2017-03-18T01:08:45.739Z,0
2017-03-18T01:09:26.246Z,0
2017-03-18T01:10:06.775Z,0
2017-03-18T01:10:47.281Z,0
2017-03-18T01:11:27.797Z,0
2017-03-18T01:12:08.312Z,0
2017-03-18T01:12:48.809Z,0
2017-03-18T01:13:29.330Z,0
2017-03-18T01:14:09.842Z,0
2017-03-18T01:14:50.364Z,0
2017-03-18T01:15:30.871Z,0
2017-03-18T01:16:11.376Z,0
2017-03-18T01:16:51.910Z,0
2017-03-18T01:17:32.420Z,0
2017-03-18T01:18:12.914Z,0
2017-03-18T01:18:53.407Z,0
2017-03-18T01:19:33.930Z,0
2017-03-18T01:20:14.442Z,0
2017-03-18T01:20:54.965Z,0
2017-03-18T01:21:35.489Z,0
2017-03-18T01:22:16.003Z,0
2017-03-18T01:22:56.526Z,0
2017-03-18T01:23:37.071Z,0
2017-03-18T01:24:17.557Z,0
2017-03-18T01:24:58.072Z,0
2017-03-18T01:25:38.575Z,0
2017-03-18T01:26:19.096Z,0
2017-03-18T01:26:59.608Z,0
2017-03-18T01:27:40.126Z,0
2017-03-18T01:28:20.619Z,0
2017-03-18T01:29:01.129Z,0
2017-03-18T01:29:41.654Z,0
2017-03-18T01:30:22.160Z,0
2017-03-18T01:31:02.683Z,0
2017-03-18T01:31:43.185Z,0
2017-03-18T01:32:23.688Z,0
2017-03-18T01:33:04.198Z,0
2017-03-18T01:33:44.692Z,0
2017-03-18T01:34:25.225Z,0
2017-03-18T01:35:05.730Z,0
2017-03-18T01:35:46.231Z,0
2017-03-18T01:36:26.751Z,0
2017-03-18T01:37:07.267Z,0
2017-03-18T01:37:47.790Z,0
2017-03-18T01:38:28.314Z,0
2017-03-18T01:39:08.845Z,0
2017-03-18T01:39:49.368Z,0
2017-03-18T01:40:29.877Z,0
2017-03-18T01:41:10.424Z,0
2017-03-18T01:41:50.927Z,0
2017-03-18T01:42:31.446Z,0
2017-03-18T01:43:11.985Z,0
2017-03-18T01:43:52.480Z,0
2017-03-18T01:44:33.020Z,0
2017-03-18T01:45:13.549Z,0
2017-03-18T01:45:54.095Z,0
2017-03-18T01:46:34.602Z,0
2017-03-18T01:47:15.126Z,0
2017-03-18T01:47:55.643Z,0
2017-03-18T01:48:36.159Z,0
2017-03-18T01:49:16.679Z,0
2017-03-18T01:49:57.179Z,0
2017-03-18T01:50:37.719Z,0
2017-03-18T01:51:18.228Z,0
2017-03-18T01:51:58.757Z,0
2017-03-18T01:52:39.296Z,0
2017-03-18T01:53:19.815Z,0
2017-03-18T01:54:00.336Z,0
2017-03-18T01:54:40.856Z,0
2017-03-18T01:55:21.370Z,0
2017-03-18T01:56:01.885Z,0
2017-03-18T01:56:42.401Z,0
2017-03-18T01:57:22.912Z,0
2017-03-18T01:58:03.414Z,0
2017-03-18T01:58:43.932Z,0
2017-03-18T01:59:24.464Z,0
2017-03-18T02:00:04.984Z,0
2017-03-18T02:00:45.512Z,0
2017-03-18T02:01:26.042Z,0
2017-03-18T02:02:06.565Z,0
2017-03-18T02:02:47.059Z,0
2017-03-18T02:03:27.564Z,0
2017-03-18T02:04:08.108Z,0
2017-03-18T02:04:48.606Z,0
2017-03-18T02:05:29.129Z,0
2017-03-18T02:06:09.659Z,0
2017-03-18T02:06:50.171Z,0
2017-03-18T02:07:30.699Z,0
2017-03-18T02:08:11.195Z,0
2017-03-18T02:08:51.712Z,0
2017-03-18T02:09:32.232Z,0
2017-03-18T02:10:12.755Z,0
2017-03-18T02:10:53.284Z,0
2017-03-18T02:11:33.758Z,0
2017-03-18T02:12:14.273Z,0
2017-03-18T02:12:54.813Z,0
2017-03-18T02:13:35.302Z,0
2017-03-18T02:14:15.807Z,0
2017-03-18T02:14:56.320Z,0
2017-03-18T02:15:36.852Z,0
2017-03-18T02:16:17.352Z,0
2017-03-18T02:16:57.869Z,0
2017-03-18T02:17:38.404Z,0
2017-03-18T02:18:18.904Z,0
2017-03-18T02:18:59.430Z,0
2017-03-18T02:19:39.989Z,0
2017-03-18T02:20:20.474Z,0
2017-03-18T02:21:00.977Z,0
2017-03-18T02:21:41.502Z,0
2017-03-18T02:22:22.024Z,0
2017-03-18T02:23:02.551Z,0
2017-03-18T02:23:43.075Z,0
2017-03-18T02:24:23.606Z,0
2017-03-18T02:25:04.117Z,0
2017-03-18T02:25:44.655Z,0
2017-03-18T02:26:25.177Z,0
2017-03-18T02:27:05.704Z,0
2017-03-18T02:27:46.213Z,0
2017-03-18T02:28:26.722Z,0
2017-03-18T02:29:07.235Z,0
2017-03-18T02:29:47.743Z,0
2017-03-18T02:30:28.255Z,0
2017-03-18T02:31:08.750Z,0
2017-03-18T02:31:49.235Z,0
2017-03-18T02:32:29.740Z,0
2017-03-18T02:33:10.247Z,0
2017-03-18T02:33:50.754Z,0
2017-03-18T02:34:31.275Z,0
2017-03-18T02:35:11.772Z,0
2017-03-18T02:35:52.279Z,0
2017-03-18T02:36:32.781Z,0
2017-03-18T02:37:13.299Z,0
2017-03-18T02:37:53.817Z,0
2017-03-18T02:38:34.296Z,0
2017-03-18T02:39:14.819Z,0
2017-03-18T02:39:55.335Z,0
2017-03-18T02:40:35.846Z,0
2017-03-18T02:41:16.339Z,0
2017-03-18T02:41:56.838Z,0
2017-03-18T02:42:37.358Z,0
2017-03-18T02:43:17.882Z,0
2017-03-18T02:43:58.390Z,0
2017-03-18T02:44:38.907Z,0
2017-03-18T02:45:19.429Z,0
2017-03-18T02:45:59.945Z,0
2017-03-18T02:46:40.465Z,0
2017-03-18T02:47:20.960Z,0
2017-03-18T02:48:01.469Z,0
2017-03-18T02:48:41.998Z,0
2017-03-18T02:49:22.495Z,0
2017-03-18T02:50:03.008Z,0
2017-03-18T02:50:43.520Z,0
2017-03-18T02:51:24.029Z,0
2017-03-18T02:52:04.556Z,0
2017-03-18T02:52:45.060Z,0
2017-03-18T02:53:25.555Z,0
2017-03-18T02:54:06.088Z,0
2017-03-18T02:54:46.639Z,0
2017-03-18T02:55:27.140Z,0
2017-03-18T02:56:07.657Z,0
2017-03-18T02:56:48.156Z,0
2017-03-18T02:57:29.534Z,0
2017-03-18T02:58:10.048Z,0
2017-03-18T02:58:50.576Z,0
2017-03-18T02:59:31.107Z,0
2017-03-18T03:00:11.604Z,0
2017-03-18T03:00:52.116Z,0
2017-03-18T03:01:32.610Z,0
2017-03-18T03:02:13.147Z,0
2017-03-18T03:02:53.636Z,0
2017-03-18T03:03:34.137Z,0
2017-03-18T03:04:14.625Z,0
2017-03-18T03:04:55.150Z,0
2017-03-18T03:05:35.654Z,0
2017-03-18T03:06:16.168Z,0
2017-03-18T03:06:56.657Z,0
2017-03-18T03:07:37.168Z,0
2017-03-18T03:08:17.683Z,0
2017-03-18T03:08:58.204Z,0
2017-03-18T03:09:38.706Z,0
2017-03-18T03:10:19.214Z,0
2017-03-18T03:10:59.735Z,0
2017-03-18T03:11:40.235Z,0
2017-03-18T03:12:20.771Z,0
2017-03-18T03:13:01.267Z,0
2017-03-18T03:13:41.795Z,0
2017-03-18T03:14:22.311Z,0
2017-03-18T03:15:02.819Z,0
2017-03-18T03:15:43.304Z,0
2017-03-18T03:16:23.837Z,0
2017-03-18T03:17:04.359Z,0
2017-03-18T03:17:44.878Z,0
2017-03-18T03:18:25.398Z,0
2017-03-18T03:19:05.904Z,0
2017-03-18T03:19:46.420Z,0
2017-03-18T03:20:26.920Z,0
2017-03-18T03:21:07.429Z,0
2017-03-18T03:21:47.949Z,0
2017-03-18T03:22:28.465Z,0
2017-03-18T03:23:08.975Z,0
2017-03-18T03:23:49.533Z,0
2017-03-18T03:24:30.056Z,0
2017-03-18T03:25:10.561Z,0
2017-03-18T03:25:51.052Z,0
2017-03-18T03:26:31.552Z,0
2017-03-18T03:27:12.059Z,0
2017-03-18T03:27:52.593Z,0
2017-03-18T03:28:33.108Z,0
2017-03-18T03:29:13.607Z,0
2017-03-18T03:29:54.119Z,0
2017-03-18T03:30:34.630Z,0
2017-03-18T03:31:15.142Z,0
2017-03-18T03:31:55.662Z,0
2017-03-18T03:32:36.166Z,0
2017-03-18T03:33:16.700Z,0
2017-03-18T03:33:57.206Z,0
2017-03-18T03:34:37.708Z,0
2017-03-18T03:35:18.236Z,0
2017-03-18T03:35:58.746Z,0
2017-03-18T03:36:39.235Z,0
2017-03-18T03:37:19.762Z,0
2017-03-18T03:38:00.260Z,0
2017-03-18T03:38:40.778Z,0
2017-03-18T03:39:21.293Z,0
2017-03-18T03:40:01.790Z,0
2017-03-18T03:40:42.299Z,0
2017-03-18T03:41:22.805Z,0
2017-03-18T03:42:03.317Z,0
2017-03-18T03:42:43.850Z,0
2017-03-18T03:43:24.359Z,0
2017-03-18T03:44:04.861Z,0
2017-03-18T03:44:45.356Z,0
2017-03-18T03:45:25.889Z,0
2017-03-18T03:46:06.384Z,0
2017-03-18T03:46:46.900Z,0
2017-03-18T03:47:27.439Z,0
2017-03-18T03:48:07.910Z,0
2017-03-18T03:48:48.402Z,0
2017-03-18T03:49:28.898Z,0
2017-03-18T03:50:09.395Z,0
2017-03-18T03:50:49.902Z,0
2017-03-18T03:51:30.409Z,0
2017-03-18T03:52:10.923Z,0
2017-03-18T03:52:51.448Z,0
2017-03-18T03:53:31.961Z,0
2017-03-18T03:54:12.480Z,0
2017-03-18T03:54:52.995Z,0
2017-03-18T03:55:33.507Z,0
2017-03-18T03:56:14.002Z,0
2017-03-18T03:56:54.522Z,0
2017-03-18T03:57:35.016Z,0
2017-03-18T03:58:15.527Z,0
2017-03-18T03:58:56.024Z,0
2017-03-18T03:59:36.539Z,0
2017-03-18T04:00:17.040Z,0
2017-03-18T04:00:57.594Z,0
2017-03-18T04:01:38.105Z,0
2017-03-18T04:02:18.608Z,0
2017-03-18T04:02:59.119Z,0
2017-03-18T04:03:39.631Z,0
2017-03-18T04:04:20.131Z,0
2017-03-18T04:05:00.646Z,0
2017-03-18T04:05:41.174Z,0
2017-03-18T04:06:21.659Z,0
2017-03-18T04:07:02.200Z,0
2017-03-18T04:07:42.707Z,0
2017-03-18T04:08:23.203Z,0
2017-03-18T04:09:03.698Z,0
2017-03-18T04:09:44.198Z,0
2017-03-18T04:10:24.724Z,0
2017-03-18T04:11:05.219Z,0
2017-03-18T04:11:45.743Z,0
2017-03-18T04:12:26.245Z,0
2017-03-18T04:13:06.769Z,0
2017-03-18T04:13:47.273Z,0
2017-03-18T04:14:27.782Z,0
2017-03-18T04:15:08.299Z,0
2017-03-18T04:15:48.812Z,0
2017-03-18T04:16:29.324Z,0
2017-03-18T04:17:09.834Z,0
2017-03-18T04:17:50.356Z,0
2017-03-18T04:18:30.880Z,0
2017-03-18T04:19:11.406Z,0
2017-03-18T04:19:51.912Z,0
2017-03-18T04:20:32.437Z,0
2017-03-18T04:21:12.948Z,0
2017-03-18T04:21:53.451Z,0
2017-03-18T04:22:33.975Z,0
2017-03-18T04:23:14.479Z,0
2017-03-18T04:23:54.996Z,0
2017-03-18T04:24:35.536Z,0
2017-03-18T04:25:16.031Z,0
2017-03-18T04:25:56.543Z,0
2017-03-18T04:26:37.084Z,0
2017-03-18T04:27:17.561Z,0
2017-03-18T04:27:58.064Z,0
2017-03-18T04:28:38.651Z,0
2017-03-18T04:29:19.170Z,0
2017-03-18T04:29:59.658Z,0
2017-03-18T04:30:40.239Z,0
2017-03-18T04:31:20.932Z,0
2017-03-18T04:32:01.815Z,0
2017-03-18T04:32:42.351Z,0
2017-03-18T04:33:23.003Z,0
2017-03-18T04:34:03.594Z,0
2017-03-18T04:34:44.120Z,0
2017-03-18T04:35:24.653Z,0
2017-03-18T04:36:05.169Z,0
2017-03-18T04:36:46.161Z,0
2017-03-18T04:37:26.717Z,0
2017-03-18T04:38:07.213Z,0
2017-03-18T04:38:47.812Z,0
2017-03-18T04:39:28.277Z,0
2017-03-18T04:40:08.796Z,0
2017-03-18T04:40:49.399Z,0
2017-03-18T04:41:29.933Z,0
2017-03-18T04:42:10.441Z,0
2017-03-18T04:42:50.966Z,0
2017-03-18T04:43:31.495Z,0
2017-03-18T04:44:12.027Z,0
2017-03-18T04:44:52.552Z,0
2017-03-18T04:45:33.113Z,0
2017-03-18T04:46:13.760Z,0
2017-03-18T04:46:54.337Z,0
2017-03-18T04:47:34.826Z,0
2017-03-18T04:48:15.337Z,0
2017-03-18T04:48:55.840Z,0
2017-03-18T04:49:36.354Z,0
2017-03-18T04:50:16.892Z,0
2017-03-18T04:50:57.521Z,0
2017-03-18T04:51:38.086Z,0
2017-03-18T04:52:18.595Z,0
2017-03-18T04:52:59.187Z,0
2017-03-18T04:53:39.736Z,0
2017-03-18T04:54:20.307Z,0
2017-03-18T04:55:00.927Z,0
2017-03-18T04:55:41.487Z,0
2017-03-18T04:56:22.061Z,0
2017-03-18T04:57:02.720Z,0
2017-03-18T04:57:43.191Z,0
2017-03-18T04:58:23.713Z,0
2017-03-18T04:59:04.234Z,0
2017-03-18T04:59:44.731Z,0
2017-03-18T05:00:25.232Z,0
2017-03-18T05:01:05.741Z,0
2017-03-18T05:01:46.221Z,0
2017-03-18T05:02:26.753Z,0
2017-03-18T05:03:07.288Z,0
2017-03-18T05:03:47.824Z,0
2017-03-18T05:04:28.323Z,0
2017-03-18T05:05:08.903Z,0
2017-03-18T05:05:49.409Z,0
2017-03-18T05:06:29.921Z,0
2017-03-18T05:07:10.453Z,0
2017-03-18T05:07:50.964Z,0
2017-03-18T05:08:31.473Z,0
2017-03-18T05:09:11.988Z,0
2017-03-18T05:09:52.515Z,0
2017-03-18T05:10:33.005Z,0
2017-03-18T05:11:13.514Z,0
2017-03-18T05:11:54.023Z,0
2017-03-18T05:12:34.529Z,0
2017-03-18T05:13:15.104Z,0
2017-03-18T05:13:55.628Z,0
2017-03-18T05:14:36.138Z,0
2017-03-18T05:15:16.637Z,0
2017-03-18T05:15:57.189Z,0
2017-03-18T05:16:37.693Z,0
2017-03-18T05:17:18.202Z,0
2017-03-18T05:17:58.711Z,0
2017-03-18T05:18:39.219Z,0
2017-03-18T05:19:19.742Z,0
2017-03-18T05:20:00.274Z,0
2017-03-18T05:20:40.795Z,0
2017-03-18T05:21:21.335Z,0
2017-03-18T05:22:01.852Z,0
2017-03-18T05:22:42.352Z,0
2017-03-18T05:23:22.889Z,0
2017-03-18T05:24:03.381Z,0
2017-03-18T05:24:43.962Z,0
2017-03-18T05:25:24.467Z,0
2017-03-18T05:26:05.103Z,0
2017-03-18T05:26:45.700Z,0
2017-03-18T05:27:26.264Z,0
2017-03-18T05:28:06.770Z,0
2017-03-18T05:28:47.267Z,0
2017-03-18T05:29:27.770Z,0
2017-03-18T05:30:08.271Z,0
2017-03-18T05:30:48.787Z,0
2017-03-18T05:31:29.341Z,0
2017-03-18T05:32:09.808Z,0
2017-03-18T05:32:50.320Z,0
2017-03-18T05:33:30.822Z,0
2017-03-18T05:34:11.323Z,0
2017-03-18T05:34:51.839Z,0
2017-03-18T05:35:32.368Z,0
2017-03-18T05:36:12.879Z,0
2017-03-18T05:36:53.400Z,0
2017-03-18T05:37:33.897Z,0
2017-03-18T05:38:14.396Z,0
2017-03-18T05:38:54.923Z,0
2017-03-18T05:39:35.444Z,0
2017-03-18T05:40:15.956Z,0
2017-03-18T05:40:56.464Z,0
2017-03-18T05:41:36.979Z,0
2017-03-18T05:42:17.472Z,0
2017-03-18T05:42:57.988Z,0
2017-03-18T05:43:38.501Z,0
2017-03-18T05:44:19.016Z,0
2017-03-18T05:44:59.519Z,0
2017-03-18T05:45:40.030Z,0
2017-03-18T05:46:20.559Z,0
2017-03-18T05:47:01.078Z,0
2017-03-18T05:47:41.599Z,0
2017-03-18T05:48:22.141Z,0
2017-03-18T05:49:02.616Z,0
2017-03-18T05:49:43.127Z,0
2017-03-18T05:50:23.629Z,0
2017-03-18T05:51:04.149Z,0
2017-03-18T05:51:44.662Z,0
2017-03-18T05:52:25.194Z,0
2017-03-18T05:53:05.696Z,0
2017-03-18T05:53:46.210Z,0
2017-03-18T05:54:26.721Z,0
2017-03-18T05:55:07.241Z,0
2017-03-18T05:55:47.742Z,0
2017-03-18T05:56:28.267Z,0
2017-03-18T05:57:08.760Z,0
2017-03-18T05:57:49.280Z,0
2017-03-18T05:58:29.798Z,0
2017-03-18T05:59:10.366Z,0
2017-03-18T05:59:50.885Z,0
2017-03-18T06:00:31.387Z,0
2017-03-18T06:01:11.886Z,0
2017-03-18T06:01:52.388Z,0
2017-03-18T06:02:32.888Z,0
2017-03-18T06:03:13.402Z,0
2017-03-18T06:03:53.916Z,0
2017-03-18T06:04:34.420Z,0
2017-03-18T06:05:14.947Z,0
2017-03-18T06:05:55.444Z,0
2017-03-18T06:06:35.959Z,0
2017-03-18T06:07:16.463Z,0
2017-03-18T06:07:56.969Z,5
2017-03-18T06:08:37.484Z,5
2017-03-18T06:09:17.991Z,5
2017-03-18T06:09:58.513Z,5
2017-03-18T06:10:39.013Z,5
2017-03-18T06:11:19.541Z,5
2017-03-18T06:12:00.047Z,5
2017-03-18T06:12:40.568Z,5
2017-03-18T06:13:21.113Z,5
2017-03-18T06:14:01.622Z,5
2017-03-18T06:14:42.114Z,5
2017-03-18T06:15:22.624Z,5
2017-03-18T06:16:03.160Z,5
2017-03-18T06:16:43.671Z,5
2017-03-18T06:17:24.182Z,5
2017-03-18T06:18:04.681Z,5
2017-03-18T06:18:45.195Z,5
2017-03-18T06:19:25.698Z,5
2017-03-18T06:20:06.206Z,5
2017-03-18T06:20:46.715Z,5
2017-03-18T06:21:27.225Z,5
2017-03-18T06:22:07.743Z,5
2017-03-18T06:22:48.236Z,5
2017-03-18T06:23:28.816Z,10
2017-03-18T06:24:09.325Z,10
2017-03-18T06:24:49.866Z,10
2017-03-18T06:25:30.384Z,10
2017-03-18T06:26:10.928Z,10
2017-03-18T06:26:51.448Z,10
2017-03-18T06:27:31.953Z,10
2017-03-18T06:28:12.464Z,10
2017-03-18T06:28:52.978Z,10
2017-03-18T06:29:33.534Z,10
2017-03-18T06:30:14.050Z,10
2017-03-18T06:30:54.558Z,15
2017-03-18T06:31:35.067Z,15
2017-03-18T06:32:15.605Z,15
2017-03-18T06:32:56.137Z,15
2017-03-18T06:33:36.661Z,15
2017-03-18T06:34:17.169Z,15
2017-03-18T06:34:57.699Z,15
2017-03-18T06:35:38.211Z,10
2017-03-18T06:36:18.738Z,10
2017-03-18T06:36:59.271Z,10
2017-03-18T06:37:39.771Z,10
2017-03-18T06:38:20.304Z,10
2017-03-18T06:39:00.821Z,10
2017-03-18T06:39:41.400Z,10
2017-03-18T06:40:21.925Z,10
2017-03-18T06:41:02.477Z,10
2017-03-18T06:41:42.980Z,15
2017-03-18T06:42:23.534Z,15
2017-03-18T06:43:04.080Z,15
2017-03-18T06:43:44.610Z,15
2017-03-18T06:44:25.125Z,15
2017-03-18T06:45:05.628Z,15
2017-03-18T06:45:46.141Z,15
2017-03-18T06:46:26.662Z,15
2017-03-18T06:47:07.350Z,15
2017-03-18T06:47:48.170Z,15
2017-03-18T06:48:28.671Z,15
2017-03-18T06:49:09.192Z,15
2017-03-18T06:49:49.694Z,10
2017-03-18T06:50:30.209Z,15
2017-03-18T06:51:10.722Z,15
2017-03-18T06:51:51.252Z,10
2017-03-18T06:52:31.783Z,15
2017-03-18T06:53:12.310Z,15
2017-03-18T06:53:52.806Z,15
2017-03-18T06:54:33.340Z,15
2017-03-18T06:55:13.844Z,15
2017-03-18T06:55:54.383Z,15
2017-03-18T06:56:34.880Z,15
2017-03-18T06:57:15.397Z,15
2017-03-18T06:57:55.924Z,15
2017-03-18T06:58:36.439Z,15
2017-03-18T06:59:16.973Z,15
2017-03-18T06:59:57.474Z,15
2017-03-18T07:00:37.985Z,15
2017-03-18T07:01:18.486Z,15
2017-03-18T07:01:59.001Z,15
2017-03-18T07:02:39.532Z,15
2017-03-18T07:03:20.054Z,15
2017-03-18T07:04:00.561Z,20
2017-03-18T07:04:41.085Z,20
2017-03-18T07:05:21.598Z,20
2017-03-18T07:06:02.098Z,20
2017-03-18T07:06:42.598Z,20
2017-03-18T07:07:23.118Z,25
2017-03-18T07:08:03.620Z,25
2017-03-18T07:08:44.128Z,25
2017-03-18T07:09:24.647Z,25
2017-03-18T07:10:05.166Z,25
2017-03-18T07:10:45.693Z,25
2017-03-18T07:11:26.207Z,20
2017-03-18T07:12:06.695Z,20
2017-03-18T07:12:47.202Z,20
2017-03-18T07:13:27.700Z,25
2017-03-18T07:14:08.205Z,30
2017-03-18T07:14:48.724Z,40
2017-03-18T07:15:29.248Z,35
2017-03-18T07:16:09.767Z,30
2017-03-18T07:16:50.269Z,30
2017-03-18T07:17:30.806Z,30
2017-03-18T07:18:11.304Z,30
2017-03-18T07:18:51.830Z,30
2017-03-18T07:19:32.367Z,30
2017-03-18T07:20:12.852Z,30
2017-03-18T07:20:53.387Z,30
2017-03-18T07:21:33.902Z,35
2017-03-18T07:22:14.410Z,35
2017-03-18T07:22:54.934Z,35
2017-03-18T07:23:35.454Z,35
2017-03-18T07:24:15.991Z,35
2017-03-18T07:24:56.504Z,35
2017-03-18T07:25:37.015Z,40
2017-03-18T07:26:17.541Z,40
2017-03-18T07:26:58.049Z,50
2017-03-18T07:27:38.566Z,50
2017-03-18T07:28:19.084Z,45
2017-03-18T07:28:59.621Z,45
2017-03-18T07:29:40.125Z,40
2017-03-18T07:30:20.655Z,35
2017-03-18T07:31:01.155Z,35
2017-03-18T07:31:41.674Z,35
2017-03-18T07:32:22.170Z,40
2017-03-18T07:33:02.658Z,45
2017-03-18T07:33:43.163Z,45
2017-03-18T07:34:23.705Z,50
2017-03-18T07:35:04.207Z,50
2017-03-18T07:35:44.748Z,50
2017-03-18T07:36:25.246Z,50
2017-03-18T07:37:05.757Z,45
2017-03-18T07:37:46.274Z,45
2017-03-18T07:38:26.790Z,45
2017-03-18T07:39:07.309Z,45
2017-03-18T07:39:47.822Z,40
2017-03-18T07:40:28.341Z,40
2017-03-18T07:41:08.862Z,40
2017-03-18T07:41:49.428Z,40
2017-03-18T07:42:29.920Z,45
2017-03-18T07:43:10.408Z,45
2017-03-18T07:43:50.988Z,50
2017-03-18T07:44:31.519Z,50
2017-03-18T07:45:12.017Z,50
2017-03-18T07:45:52.530Z,50
2017-03-18T07:46:33.073Z,50
2017-03-18T07:47:13.569Z,50
2017-03-18T07:47:54.084Z,50
2017-03-18T07:48:34.605Z,40
2017-03-18T07:49:15.092Z,45
2017-03-18T07:49:55.617Z,45
2017-03-18T07:50:36.127Z,45
2017-03-18T07:51:16.642Z,45
2017-03-18T07:51:57.171Z,45
2017-03-18T07:52:37.678Z,50
2017-03-18T07:53:18.195Z,50
2017-03-18T07:53:58.682Z,50
2017-03-18T07:54:39.229Z,45
2017-03-18T07:55:19.736Z,45
2017-03-18T07:56:00.246Z,45
2017-03-18T07:56:40.751Z,45
2017-03-18T07:57:21.267Z,40
2017-03-18T07:58:01.776Z,40
2017-03-18T07:58:42.319Z,45
2017-03-18T07:59:22.835Z,45
2017-03-18T08:00:03.353Z,45
2017-03-18T08:00:43.895Z,45
2017-03-18T08:01:24.417Z,50
2017-03-18T08:02:04.925Z,50
2017-03-18T08:02:45.439Z,50
2017-03-18T08:03:25.977Z,50
2017-03-18T08:04:06.496Z,50
2017-03-18T08:04:47.017Z,45
2017-03-18T08:05:27.547Z,45
2017-03-18T08:06:08.041Z,50
2017-03-18T08:06:48.578Z,45
2017-03-18T08:07:29.113Z,45
2017-03-18T08:08:09.625Z,45
2017-03-18T08:08:50.119Z,45
2017-03-18T08:09:30.653Z,50
2017-03-18T08:10:11.170Z,55
2017-03-18T08:10:51.661Z,60
2017-03-18T08:11:32.239Z,55
2017-03-18T08:12:12.727Z,55
2017-03-18T08:12:53.217Z,55
2017-03-18T08:13:33.732Z,50
2017-03-18T08:14:14.239Z,50
2017-03-18T08:14:54.760Z,45
2017-03-18T08:15:35.438Z,45
2017-03-18T08:16:16.919Z,50
2017-03-18T08:16:57.436Z,50
2017-03-18T08:17:37.950Z,50
2017-03-18T08:18:18.459Z,50
2017-03-18T08:18:58.960Z,50
2017-03-18T08:19:39.478Z,55
2017-03-18T08:20:19.995Z,65
2017-03-18T08:21:00.520Z,60
2017-03-18T08:21:41.193Z,60
2017-03-18T08:22:21.727Z,60
2017-03-18T08:23:02.239Z,60
2017-03-18T08:23:42.748Z,55
2017-03-18T08:24:23.270Z,50
2017-03-18T08:25:03.842Z,50
2017-03-18T08:25:44.427Z,55
2017-03-18T08:26:24.986Z,55
2017-03-18T08:27:05.503Z,55
2017-03-18T08:27:46.029Z,60
2017-03-18T08:28:26.577Z,60
2017-03-18T08:29:07.098Z,60
2017-03-18T08:29:47.622Z,60
2017-03-18T08:30:28.152Z,60
2017-03-18T08:31:08.684Z,60
2017-03-18T08:31:49.191Z,65
2017-03-18T08:32:29.704Z,70
2017-03-18T08:33:10.221Z,70
2017-03-18T08:33:50.748Z,70
2017-03-18T08:34:31.273Z,70
2017-03-18T08:35:11.759Z,75
2017-03-18T08:35:52.264Z,75
2017-03-18T08:36:32.756Z,75
2017-03-18T08:37:13.250Z,75
2017-03-18T08:37:54.259Z,85
2017-03-18T08:38:34.772Z,85
2017-03-18T08:39:15.295Z,80
2017-03-18T08:39:55.826Z,85
2017-03-18T08:40:36.325Z,90
2017-03-18T08:41:16.839Z,95
2017-03-18T08:41:57.355Z,90
2017-03-18T08:42:37.876Z,85
2017-03-18T08:43:18.411Z,80
2017-03-18T08:43:58.930Z,80
2017-03-18T08:44:39.439Z,75
2017-03-18T08:45:19.932Z,75
2017-03-18T08:46:00.455Z,80
2017-03-18T08:46:40.966Z,85
2017-03-18T08:47:21.492Z,90
2017-03-18T08:48:02.004Z,90
2017-03-18T08:48:42.503Z,85
2017-03-18T08:49:23.084Z,85
2017-03-18T08:50:03.590Z,85
2017-03-18T08:50:44.092Z,80
2017-03-18T08:51:24.621Z,80
2017-03-18T08:52:05.144Z,80
2017-03-18T08:52:45.631Z,85
2017-03-18T08:53:26.155Z,85
2017-03-18T08:54:06.660Z,80
2017-03-18T08:54:47.174Z,80
2017-03-18T08:55:27.689Z,85
2017-03-18T08:56:08.216Z,90
2017-03-18T08:56:48.735Z,85
2017-03-18T08:57:29.290Z,80
2017-03-18T08:58:09.799Z,85
2017-03-18T08:58:50.333Z,80
2017-03-18T08:59:30.858Z,75
2017-03-18T09:00:11.364Z,75
2017-03-18T09:00:51.893Z,70
2017-03-18T09:01:32.417Z,70
2017-03-18T09:02:12.948Z,75
2017-03-18T09:02:53.442Z,75
2017-03-18T09:03:33.960Z,85
2017-03-18T09:04:14.512Z,100
2017-03-18T09:04:54.997Z,105
2017-03-18T09:05:35.534Z,110
2017-03-18T09:06:16.117Z,110
2017-03-18T09:06:56.649Z,100
2017-03-18T09:07:37.157Z,95
2017-03-18T09:08:17.674Z,85
2017-03-18T09:08:58.203Z,85
2017-03-18T09:09:38.744Z,80
2017-03-18T09:10:19.278Z,75
2017-03-18T09:10:59.799Z,75
2017-03-18T09:11:40.311Z,70
2017-03-18T09:12:20.817Z,65
2017-03-18T09:13:01.356Z,70
2017-03-18T09:13:41.877Z,70
2017-03-18T09:14:22.421Z,65
2017-03-18T09:15:02.956Z,60
2017-03-18T09:15:43.482Z,60
2017-03-18T09:16:24.018Z,55
2017-03-18T09:17:04.556Z,55
2017-03-18T09:17:45.090Z,55
2017-03-18T09:18:25.641Z,60
2017-03-18T09:19:06.193Z,60
2017-03-18T09:19:46.735Z,55
2017-03-18T09:20:27.277Z,60
2017-03-18T09:21:07.807Z,60
2017-03-18T09:21:48.320Z,65
2017-03-18T09:22:28.846Z,65
2017-03-18T09:23:09.383Z,65
2017-03-18T09:23:49.898Z,65
2017-03-18T09:24:30.437Z,60
2017-03-18T09:25:10.926Z,55
2017-03-18T09:25:51.445Z,55
2017-03-18T09:26:31.961Z,55
2017-03-18T09:27:12.481Z,60
2017-03-18T09:27:53.041Z,55
2017-03-18T09:28:33.573Z,50
2017-03-18T09:29:14.106Z,55
2017-03-18T09:29:54.607Z,55
2017-03-18T09:30:35.146Z,60
2017-03-18T09:31:15.677Z,60
2017-03-18T09:31:56.207Z,55
2017-03-18T09:32:36.714Z,60
2017-03-18T09:33:17.247Z,55
2017-03-18T09:33:57.763Z,60
2017-03-18T09:34:38.286Z,65
2017-03-18T09:35:18.818Z,70
2017-03-18T09:35:59.341Z,70
2017-03-18T09:36:39.860Z,70
2017-03-18T09:37:20.349Z,65
2017-03-18T09:38:00.868Z,70
2017-03-18T09:38:41.373Z,70
2017-03-18T09:39:21.893Z,75
2017-03-18T09:40:02.417Z,75
2017-03-18T09:40:42.914Z,70
2017-03-18T09:41:23.440Z,70
2017-03-18T09:42:03.935Z,75
2017-03-18T09:42:44.439Z,75
2017-03-18T09:43:24.948Z,75
2017-03-18T09:44:05.447Z,80
2017-03-18T09:44:45.972Z,85
2017-03-18T09:45:26.477Z,85
2017-03-18T09:46:07.002Z,90
2017-03-18T09:46:47.515Z,95
2017-03-18T09:47:28.032Z,85
2017-03-18T09:48:08.527Z,75
2017-03-18T09:48:49.048Z,70
2017-03-18T09:49:29.563Z,65
2017-03-18T09:50:10.085Z,65
2017-03-18T09:50:50.618Z,70
2017-03-18T09:51:31.159Z,70